Time;durP1;ratioP1;P1;durP2;ratioP2;P2;SDS_P1;SDS_P2;PMS_P1;PMS_P2;Temp;Humidity;BMP_temperature;BMP_pressure;BME280_temperature;BME280_humidity;BME280_pressure;Samples;Min_cycle;Max_cycle;Signal;HPM_P1;HPM_P2
2023/03/19 00:01:54;;;;;;;73.95;26.92;;;;;;;9.36;100.00;101195.25;5113820;28;20031;-66
2023/03/19 00:04:21;;;;;;;65.90;25.42;;;;;;;9.38;100.00;101185.16;5122944;28;20024;-69
2023/03/19 00:06:46;;;;;;;61.28;24.25;;;;;;;9.46;100.00;101194.16;5131225;28;20027;-72
2023/03/19 00:09:11;;;;;;;62.88;24.48;;;;;;;9.48;100.00;101197.53;5118894;28;20032;-66
2023/03/19 00:11:37;;;;;;;72.53;25.38;;;;;;;9.49;100.00;101194.63;5114498;28;20466;-65
2023/03/19 00:14:03;;;;;;;57.17;22.63;;;;;;;9.51;100.00;101195.28;5114052;28;20031;-66
2023/03/19 00:16:29;;;;;;;59.25;21.88;;;;;;;9.49;100.00;101196.50;5111769;28;20037;-78
2023/03/19 00:18:54;;;;;;;66.97;23.58;;;;;;;9.50;100.00;101198.16;5110929;28;20063;-66
2023/03/19 00:21:20;;;;;;;56.00;22.30;;;;;;;9.50;100.00;101195.47;5111505;28;20500;-66
2023/03/19 00:23:46;;;;;;;56.60;21.52;;;;;;;9.49;100.00;101199.19;5111495;28;20031;-66
2023/03/19 00:26:11;;;;;;;54.50;21.20;;;;;;;9.45;100.00;101197.88;5111280;28;20042;-66
2023/03/19 00:28:37;;;;;;;53.33;21.88;;;;;;;9.54;100.00;101202.16;5112518;28;20117;-65
2023/03/19 00:31:14;;;;;;;51.88;21.55;;;;;;;9.60;100.00;101212.16;5112923;28;20110;-66
2023/03/19 00:33:40;;;;;;;53.15;21.42;;;;;;;9.64;100.00;101213.47;5112215;28;20037;-65
2023/03/19 00:36:06;;;;;;;44.35;19.10;;;;;;;9.69;100.00;101210.22;5112699;28;20098;-66
2023/03/19 00:38:33;;;;;;;43.38;19.25;;;;;;;9.69;100.00;101203.00;5112187;28;20569;-66
2023/03/19 00:40:59;;;;;;;47.40;19.17;;;;;;;9.69;100.00;101203.00;5112795;28;20032;-65
2023/03/19 00:43:24;;;;;;;44.00;20.25;;;;;;;9.70;100.00;101202.00;5112159;28;20602;-66
2023/03/19 00:45:50;;;;;;;45.50;20.40;;;;;;;9.70;100.00;101201.16;5112760;28;20020;-66
2023/03/19 00:48:16;;;;;;;55.08;21.48;;;;;;;9.69;100.00;101199.47;5112162;28;20027;-65
2023/03/19 00:50:41;;;;;;;49.20;20.30;;;;;;;9.68;100.00;101204.03;5111789;28;20354;-66
2023/03/19 00:53:07;;;;;;;48.45;20.88;;;;;;;9.64;100.00;101198.19;5112480;28;20027;-65
2023/03/19 00:55:32;;;;;;;43.53;19.23;;;;;;;9.71;100.00;101205.53;5111086;28;20031;-66
2023/03/19 00:57:58;;;;;;;59.38;22.50;;;;;;;9.70;100.00;101201.16;5094125;28;20113;-65
2023/03/19 01:00:23;;;;;;;46.55;21.00;;;;;;;9.70;100.00;101210.06;5093756;28;20053;-66
2023/03/19 01:02:48;;;;;;;53.08;21.80;;;;;;;9.70;100.00;101203.84;5111699;27;20028;-65
2023/03/19 01:05:14;;;;;;;53.20;21.77;;;;;;;9.58;100.00;101204.28;5111651;28;20447;-80
2023/03/19 01:07:40;;;;;;;53.67;21.17;;;;;;;9.61;100.00;101208.47;5111031;28;20027;-65
2023/03/19 01:10:06;;;;;;;57.67;21.35;;;;;;;9.55;100.00;101193.91;5112089;28;20592;-66
2023/03/19 01:12:32;;;;;;;48.08;21.02;;;;;;;9.63;100.00;101211.78;5112073;28;20032;-65
2023/03/19 01:14:58;;;;;;;47.30;22.15;;;;;;;9.62;100.00;101212.81;5111988;28;20035;-65
2023/03/19 01:17:24;;;;;;;52.55;23.45;;;;;;;9.57;100.00;101202.63;5111438;28;20027;-64
2023/03/19 01:19:49;;;;;;;48.88;22.42;;;;;;;9.67;100.00;101215.81;5111570;28;20414;-66
2023/03/19 01:22:16;;;;;;;43.58;21.95;;;;;;;9.66;100.00;101211.44;5110083;28;20093;-65
2023/03/19 01:24:42;;;;;;;43.95;20.67;;;;;;;9.68;100.00;101214.78;5111873;28;20054;-66
2023/03/19 01:27:07;;;;;;;40.58;19.25;;;;;;;9.67;100.00;101209.56;5111587;28;20341;-66
2023/03/19 01:29:33;;;;;;;44.75;20.42;;;;;;;9.74;100.00;101206.00;5094611;28;20061;-66
2023/03/19 01:31:59;;;;;;;38.65;18.35;;;;;;;9.75;100.00;101207.66;5113465;28;20027;-66
2023/03/19 01:34:24;;;;;;;45.15;18.70;;;;;;;9.79;100.00;101210.78;5111331;28;20135;-66
2023/03/19 01:36:49;;;;;;;32.38;16.10;;;;;;;9.79;100.00;101213.50;5111503;28;20112;-74
2023/03/19 01:39:15;;;;;;;33.65;16.73;;;;;;;9.70;100.00;101203.84;5111623;28;20032;-66
2023/03/19 01:41:41;;;;;;;36.65;17.35;;;;;;;9.66;100.00;101211.44;5110597;28;20027;-65
2023/03/19 01:44:27;;;;;;;40.13;16.95;;;;;;;9.67;100.00;101201.50;5111622;28;20031;-66
2023/03/19 01:46:53;;;;;;;37.53;16.13;;;;;;;9.51;100.00;101195.28;5111200;28;20027;-66
2023/03/19 01:49:21;;;;;;;33.58;15.50;;;;;;;9.61;100.00;101201.25;5109974;28;20040;-66
2023/03/19 01:51:47;;;;;;;33.53;15.65;;;;;;;9.71;100.00;101214.41;5111180;28;20035;-66
2023/03/19 01:54:16;;;;;;;24.48;13.85;;;;;;;9.75;100.00;101209.50;5111122;28;20027;-65
2023/03/19 01:56:43;;;;;;;28.40;14.80;;;;;;;9.75;100.00;101212.19;5115548;28;20031;-66
2023/03/19 01:59:16;;;;;;;26.02;14.40;;;;;;;9.75;100.00;101213.03;5114188;28;20030;-65
2023/03/19 02:02:08;;;;;;;28.45;14.38;;;;;;;9.80;100.00;101216.00;5115670;28;20023;-66
2023/03/19 02:04:36;;;;;;;34.45;15.02;;;;;;;9.83;100.00;101215.66;5115622;28;20055;-65
2023/03/19 02:07:03;;;;;;;31.27;15.45;;;;;;;9.75;100.00;101214.88;5115682;28;20042;-65
2023/03/19 02:09:30;;;;;;;121.05;21.65;;;;;;;9.65;100.00;101217.81;5113765;28;20031;-64
2023/03/19 02:11:56;;;;;;;41.65;18.05;;;;;;;9.54;100.00;101220.97;5115059;28;20036;-66
2023/03/19 02:14:22;;;;;;;43.03;17.75;;;;;;;9.51;100.00;101219.47;5114963;28;20118;-65
2023/03/19 02:16:47;;;;;;;76.13;19.80;;;;;;;9.37;100.00;101207.69;5113963;28;20024;-66
2023/03/19 02:19:19;;;;;;;44.22;17.65;;;;;;;9.41;100.00;101219.72;5115002;28;20055;-66
2023/03/19 02:21:45;;;;;;;42.25;17.35;;;;;;;9.47;100.00;101222.69;5115190;28;20098;-65
2023/03/19 02:24:13;;;;;;;36.67;17.20;;;;;;;9.54;100.00;101223.66;5115480;28;20114;-66
2023/03/19 02:26:41;;;;;;;37.20;16.80;;;;;;;9.58;100.00;101222.28;5115058;28;20027;-66
2023/03/19 02:29:06;;;;;;;39.75;16.80;;;;;;;9.59;100.00;101222.06;5114858;28;20553;-65
2023/03/19 02:31:32;;;;;;;39.83;17.27;;;;;;;9.54;100.00;101203.00;5115756;28;20132;-66
2023/03/19 02:34:00;;;;;;;54.85;17.98;;;;;;;9.54;100.00;101218.28;5114967;28;20446;-65
2023/03/19 02:36:32;;;;;;;328.55;23.55;;;;;;;9.14;100.00;101180.84;5115379;28;20034;-66
2023/03/19 02:39:01;;;;;;;385.10;25.77;;;;;;;9.17;100.00;101217.22;5116707;28;20035;-66
2023/03/19 02:41:28;;;;;;;525.85;26.55;;;;;;;9.01;100.00;101220.88;5122147;28;20031;-73
2023/03/19 02:43:54;;;;;;;352.50;22.45;;;;;;;8.85;100.00;101224.50;5115899;28;20027;-66
2023/03/19 02:46:20;;;;;;;531.42;27.77;;;;;;;8.66;100.00;101211.53;5114364;28;20023;-66
2023/03/19 02:48:45;;;;;;;176.15;21.52;;;;;;;8.81;100.00;101228.56;5096354;28;20035;-80
2023/03/19 02:51:12;;;;;;;176.20;23.50;;;;;;;8.87;100.00;101227.88;5096325;28;20394;-65
2023/03/19 02:53:37;;;;;;;58.33;19.23;;;;;;;8.97;100.00;101224.91;5113745;28;20028;-65
2023/03/19 02:56:03;;;;;;;51.60;19.08;;;;;;;9.04;100.00;101222.34;5114908;28;20145;-65
2023/03/19 02:58:28;;;;;;;88.45;21.00;;;;;;;8.99;100.00;101219.41;5115065;28;20023;-66
2023/03/19 03:00:54;;;;;;;54.30;18.48;;;;;;;8.94;100.00;101218.09;5114207;28;20039;-65
2023/03/19 03:03:19;;;;;;;65.50;20.23;;;;;;;9.04;100.00;101227.72;5097299;28;20461;-66
2023/03/19 03:05:45;;;;;;;82.57;20.27;;;;;;;8.90;100.00;101203.31;5115702;28;20045;-65
2023/03/19 03:08:10;;;;;;;160.35;20.50;;;;;;;8.97;100.00;101221.41;5113262;28;20065;-65
2023/03/19 03:10:36;;;;;;;49.47;17.95;;;;;;;8.89;100.00;101209.72;5115681;28;20031;-65
2023/03/19 03:13:02;;;;;;;78.10;19.10;;;;;;;8.74;100.00;101183.81;5115539;28;20030;-66
2023/03/19 03:15:27;;;;;;;127.68;20.00;;;;;;;8.74;100.00;101216.88;5114130;28;20514;-66
2023/03/19 03:17:53;;;;;;;57.25;17.42;;;;;;;8.80;100.00;101216.16;5116247;28;20028;-65
2023/03/19 03:20:18;;;;;;;49.28;17.27;;;;;;;8.97;100.00;101229.47;5116969;28;20061;-65
2023/03/19 03:22:45;;;;;;;63.70;18.80;;;;;;;8.70;100.00;101211.00;5113549;28;20043;-66
2023/03/19 03:25:11;;;;;;;39.10;16.33;;;;;;;9.00;100.00;101221.88;5112802;28;20023;-66
2023/03/19 03:27:38;;;;;;;36.92;16.00;;;;;;;8.99;100.00;101222.91;5114267;28;20027;-65
2023/03/19 03:30:09;;;;;;;45.28;17.00;;;;;;;9.07;100.00;101220.19;5114042;28;20028;-65
2023/03/19 03:32:36;;;;;;;38.47;17.90;;;;;;;9.11;100.00;101231.41;5113483;28;20028;-65
2023/03/19 03:35:02;;;;;;;54.85;16.80;;;;;;;9.10;100.00;101229.69;5112417;28;20474;-65
2023/03/19 03:37:28;;;;;;;36.50;16.40;;;;;;;9.18;100.00;101232.34;5113620;28;20027;-65
2023/03/19 03:39:53;;;;;;;39.70;16.85;;;;;;;9.01;100.00;101222.75;5112391;28;20038;-65
2023/03/19 03:42:19;;;;;;;46.08;17.80;;;;;;;8.96;100.00;101225.94;5113910;28;20026;-65
2023/03/19 03:44:44;;;;;;;33.60;16.38;;;;;;;9.14;100.00;101221.13;5113505;28;20042;-66
2023/03/19 03:47:10;;;;;;;28.15;14.30;;;;;;;9.19;100.00;101231.31;5112170;28;20562;-65
2023/03/19 03:49:36;;;;;;;30.98;15.35;;;;;;;9.11;100.00;101229.53;5078060;28;20104;-65
2023/03/19 03:52:01;;;;;;;99.03;16.90;;;;;;;9.10;100.00;101232.38;5113469;28;20078;-65
2023/03/19 03:54:27;;;;;;;71.97;18.40;;;;;;;8.96;100.00;101235.84;5113631;28;20073;-65
2023/03/19 03:56:52;;;;;;;114.32;18.60;;;;;;;8.89;100.00;101231.19;5112143;28;20110;-65
2023/03/19 03:59:18;;;;;;;98.15;17.27;;;;;;;8.90;100.00;101243.59;5112373;28;20547;-66
2023/03/19 04:01:43;;;;;;;39.60;15.02;;;;;;;8.84;100.00;101238.94;5112533;28;20038;-66
2023/03/19 04:04:09;;;;;;;62.88;17.80;;;;;;;8.80;100.00;101234.09;5095881;28;20116;-64
2023/03/19 04:06:34;;;;;;;38.17;14.65;;;;;;;8.81;100.00;101244.66;5115885;28;20023;-65
2023/03/19 04:09:01;;;;;;;45.10;16.48;;;;;;;8.89;100.00;101246.47;5112890;28;20039;-66
2023/03/19 04:11:26;;;;;;;45.85;16.90;;;;;;;8.80;100.00;101220.69;5113247;28;20027;-65
2023/03/19 04:13:56;;;;;;;49.53;16.88;;;;;;;8.91;100.00;101231.84;5112664;28;20023;-66
2023/03/19 04:16:22;;;;;;;60.38;19.63;;;;;;;8.88;100.00;101234.91;5113278;28;20022;-65
2023/03/19 04:18:47;;;;;;;49.38;17.90;;;;;;;8.92;100.00;101236.19;5112878;28;20091;-65
2023/03/19 04:21:13;;;;;;;39.67;16.17;;;;;;;8.82;100.00;101199.88;5111585;28;20027;-65
2023/03/19 04:23:39;;;;;;;55.95;18.77;;;;;;;9.00;100.00;101231.78;5113087;28;20496;-65
2023/03/19 04:26:06;;;;;;;43.75;16.95;;;;;;;9.03;100.00;101236.81;5094903;28;20028;-66
2023/03/19 04:28:31;;;;;;;39.50;15.63;;;;;;;9.08;100.00;101239.81;5112157;28;20149;-66
2023/03/19 04:31:07;;;;;;;43.80;16.52;;;;;;;9.14;100.00;101247.16;5113070;28;20055;-65
2023/03/19 04:33:33;;;;;;;29.50;14.23;;;;;;;9.18;100.00;101240.41;5111814;28;20051;-66
2023/03/19 04:35:59;;;;;;;30.00;13.88;;;;;;;9.16;100.00;101243.25;5113061;28;20123;-66
2023/03/19 04:38:28;;;;;;;29.83;14.00;;;;;;;9.12;100.00;101227.69;5112959;28;20095;-66
2023/03/19 04:40:55;;;;;;;34.03;14.30;;;;;;;9.12;100.00;101230.38;5112891;28;20039;-67
2023/03/19 04:43:21;;;;;;;35.22;14.88;;;;;;;9.02;100.00;101213.66;5110638;28;20077;-66
2023/03/19 04:45:47;;;;;;;28.48;13.50;;;;;;;9.01;100.00;101228.94;5112979;28;20027;-65
2023/03/19 04:48:12;;;;;;;28.10;13.25;;;;;;;8.97;100.00;101232.16;5112598;28;20028;-66
2023/03/19 04:50:39;;;;;;;29.00;13.85;;;;;;;9.03;100.00;101226.06;5112647;27;20036;-65
2023/03/19 04:53:04;;;;;;;25.63;13.05;;;;;;;9.08;100.00;101231.75;5112675;28;20023;-66
2023/03/19 04:55:30;;;;;;;25.80;12.73;;;;;;;9.09;100.00;101234.25;5094288;28;20030;-65
2023/03/19 04:57:55;;;;;;;23.20;12.63;;;;;;;9.15;100.00;101241.59;5112940;28;20108;-66
2023/03/19 05:00:20;;;;;;;23.02;12.20;;;;;;;9.19;100.00;101244.75;5113039;28;20046;-65
2023/03/19 05:02:46;;;;;;;24.00;12.48;;;;;;;9.11;100.00;101239.44;5111151;28;20487;-66
2023/03/19 05:05:12;;;;;;;28.17;13.05;;;;;;;9.16;100.00;101245.09;5113543;28;20457;-66
2023/03/19 05:07:39;;;;;;;22.23;12.10;;;;;;;9.22;100.00;101256.97;5112488;28;20055;-66
2023/03/19 05:10:06;;;;;;;25.45;12.35;;;;;;;9.21;100.00;101241.91;5112507;28;20402;-65
2023/03/19 05:12:31;;;;;;;20.20;12.15;;;;;;;9.17;100.00;101246.75;5113008;28;20398;-66
2023/03/19 05:14:57;;;;;;;20.52;11.70;;;;;;;9.20;100.00;101241.03;5115557;28;20028;-66
2023/03/19 05:17:22;;;;;;;26.02;13.40;;;;;;;9.21;100.00;101245.41;5110825;28;20046;-65
2023/03/19 05:19:48;;;;;;;18.83;11.23;;;;;;;9.29;100.00;101253.38;5110605;28;20060;-66
2023/03/19 05:22:13;;;;;;;16.23;10.55;;;;;;;9.33;100.00;101254.69;5108814;28;20473;-65
2023/03/19 05:24:39;;;;;;;17.23;11.45;;;;;;;9.35;100.00;101255.38;5110147;28;20109;-66
2023/03/19 05:27:04;;;;;;;18.13;11.82;;;;;;;9.30;100.00;101256.91;5109329;28;20077;-68
2023/03/19 05:29:30;;;;;;;17.80;11.48;;;;;;;9.25;100.00;101248.56;5091303;28;20031;-66
2023/03/19 05:31:55;;;;;;;22.90;12.15;;;;;;;9.26;100.00;101253.75;5110673;28;20119;-65
2023/03/19 05:34:20;;;;;;;19.77;11.55;;;;;;;9.27;100.00;101251.88;5111476;28;20032;-66
2023/03/19 05:36:46;;;;;;;18.15;11.27;;;;;;;9.29;100.00;101253.38;5111067;28;20483;-65
2023/03/19 05:39:11;;;;;;;18.05;11.50;;;;;;;9.17;100.00;101247.63;5112620;28;20591;-65
2023/03/19 05:41:37;;;;;;;20.80;11.18;;;;;;;9.19;100.00;101266.22;5113114;28;20106;-65
2023/03/19 05:44:03;;;;;;;17.13;9.98;;;;;;;9.27;100.00;101271.56;5112507;28;20490;-66
2023/03/19 05:46:28;;;;;;;17.98;10.55;;;;;;;9.31;100.00;101277.41;5111909;28;20097;-65
2023/03/19 05:48:53;;;;;;;17.38;10.77;;;;;;;9.41;100.00;101268.06;5110486;28;20031;-66
2023/03/19 05:51:19;;;;;;;17.92;11.60;;;;;;;9.42;100.00;101266.22;5112034;28;20106;-66
2023/03/19 05:53:44;;;;;;;17.52;10.32;;;;;;;9.38;100.00;101264.91;5110607;28;20124;-65
2023/03/19 05:56:10;;;;;;;15.70;10.43;;;;;;;9.32;100.00;101252.19;5111904;28;20079;-65
2023/03/19 05:58:36;;;;;;;16.15;10.20;;;;;;;9.43;100.00;101264.38;5111621;28;20038;-65
2023/03/19 06:01:02;;;;;;;16.02;11.00;;;;;;;9.47;100.00;101271.03;5113292;28;20035;-66
2023/03/19 06:03:27;;;;;;;17.75;10.90;;;;;;;9.47;100.00;101271.03;5112234;28;20066;-66
2023/03/19 06:05:53;;;;;;;17.33;10.55;;;;;;;9.51;100.00;101269.69;5112098;28;20062;-66
2023/03/19 06:08:19;;;;;;;14.00;10.27;;;;;;;9.50;100.00;101274.19;5111628;28;20039;-66
2023/03/19 06:10:45;;;;;;;17.45;10.40;;;;;;;9.55;100.00;101274.50;5111635;28;20024;-65
2023/03/19 06:13:11;;;;;;;15.98;10.38;;;;;;;9.54;100.00;101272.84;5110290;28;20024;-66
2023/03/19 06:15:36;;;;;;;17.13;10.27;;;;;;;9.57;100.00;101272.47;5110591;28;20467;-65
2023/03/19 06:18:02;;;;;;;12.90;9.65;;;;;;;9.56;100.00;101275.34;5111805;28;20046;-66
2023/03/19 06:20:28;;;;;;;13.57;9.57;;;;;;;9.56;100.00;101281.53;5111717;28;20048;-65
2023/03/19 06:22:53;;;;;;;14.18;9.57;;;;;;;9.56;100.00;101284.22;5111459;28;20462;-66
2023/03/19 06:25:19;;;;;;;14.90;9.73;;;;;;;9.57;100.00;101283.22;5111383;28;20505;-67
2023/03/19 06:27:44;;;;;;;14.50;9.23;;;;;;;9.53;100.00;101275.69;5093142;28;20035;-65
2023/03/19 06:30:11;;;;;;;12.73;9.18;;;;;;;9.54;100.00;101285.44;5111411;28;20085;-66
2023/03/19 06:32:37;;;;;;;13.30;9.05;;;;;;;9.62;100.00;101288.06;5111473;28;20562;-66
2023/03/19 06:35:03;;;;;;;13.73;8.75;;;;;;;9.70;100.00;101285.31;5111206;28;20112;-66
2023/03/19 06:37:29;;;;;;;14.57;9.55;;;;;;;9.69;100.00;101280.94;5113366;28;20517;-66
2023/03/19 06:39:55;;;;;;;15.30;9.60;;;;;;;9.74;100.00;101283.09;5111891;28;20036;-66
2023/03/19 06:42:21;;;;;;;12.23;9.30;;;;;;;9.73;100.00;101284.91;5113173;28;20371;-67
2023/03/19 06:44:47;;;;;;;16.80;9.02;;;;;;;9.77;100.00;101288.94;5114873;28;20115;-67
2023/03/19 06:47:13;;;;;;;11.07;8.80;;;;;;;9.86;100.00;101290.50;5097298;28;20024;-68
2023/03/19 06:49:38;;;;;;;12.95;9.63;;;;;;;9.76;100.00;101271.13;5114971;28;20505;-67
2023/03/19 06:52:04;;;;;;;12.63;8.73;;;;;;;9.97;100.00;101299.16;5114321;28;20043;-66
2023/03/19 06:54:30;;;;;;;14.75;9.27;;;;;;;10.07;100.00;101305.13;5115702;27;20051;-66
2023/03/19 06:56:56;;;;;;;14.65;9.38;;;;;;;9.94;100.00;101299.53;5115406;28;20110;-65
2023/03/19 06:59:22;;;;;;;15.70;8.63;;;;;;;10.05;100.00;101294.53;5113578;28;20401;-65
2023/03/19 07:01:48;;;;;;;11.18;8.57;;;;;;;9.84;100.00;101292.56;5113615;28;20035;-66
2023/03/19 07:04:13;;;;;;;12.00;8.43;;;;;;;9.95;100.00;101293.13;5113715;28;20138;-66
2023/03/19 07:06:39;;;;;;;11.38;8.27;;;;;;;10.03;100.00;101293.91;5113721;28;20050;-65
2023/03/19 07:09:04;;;;;;;11.68;8.40;;;;;;;9.97;100.00;101286.56;5096960;28;20042;-65
2023/03/19 07:11:30;;;;;;;10.10;7.97;;;;;;;9.68;100.00;101290.00;5114590;28;20644;-64
2023/03/19 07:13:55;;;;;;;11.80;8.38;;;;;;;9.96;100.00;101300.16;5117488;28;20435;-66
2023/03/19 07:16:21;;;;;;;12.30;8.40;;;;;;;10.21;100.00;101290.00;5119179;28;20516;-66
2023/03/19 07:18:46;;;;;;;11.43;8.15;;;;;;;10.34;100.00;101295.63;5113429;28;20031;-66
2023/03/19 07:21:12;;;;;;;11.25;8.25;;;;;;;10.21;100.00;101293.53;5114857;28;20031;-66
2023/03/19 07:23:37;;;;;;;11.68;7.68;;;;;;;10.12;100.00;101294.63;5114700;28;20554;-67
2023/03/19 07:26:03;;;;;;;10.68;7.07;;;;;;;10.20;100.00;101283.81;5113680;28;20027;-66
2023/03/19 07:28:29;;;;;;;8.88;5.75;;;;;;;10.14;100.00;101252.25;5114409;28;20068;-65
2023/03/19 07:30:55;;;;;;;8.88;6.30;;;;;;;10.47;100.00;101278.81;5114999;28;20035;-66
2023/03/19 07:33:21;;;;;;;7.40;5.97;;;;;;;10.40;100.00;101273.34;5112988;28;20023;-66
2023/03/19 07:35:47;;;;;;;8.25;6.07;;;;;;;10.64;100.00;101282.97;5113204;28;20038;-66
2023/03/19 07:38:13;;;;;;;11.40;6.28;;;;;;;10.70;100.00;101279.53;5114037;28;20019;-66
2023/03/19 07:40:39;;;;;;;10.32;6.35;;;;;;;10.76;100.00;101277.91;5112981;28;20057;-66
2023/03/19 07:43:04;;;;;;;9.27;6.18;;;;;;;10.65;100.00;101248.81;5114056;28;20120;-66
2023/03/19 07:45:30;;;;;;;8.68;6.30;;;;;;;10.54;100.00;101282.44;5114265;28;20085;-65
2023/03/19 07:47:55;;;;;;;8.85;6.40;;;;;;;10.44;100.00;101271.94;5112698;28;20076;-65
2023/03/19 07:50:21;;;;;;;8.93;6.07;;;;;;;10.49;100.00;101279.44;5113494;28;20034;-66
2023/03/19 07:52:48;;;;;;;10.05;6.25;;;;;;;10.56;100.00;101272.28;5113223;28;20401;-65
2023/03/19 07:55:14;;;;;;;7.57;5.85;;;;;;;10.58;100.00;101273.78;5114871;28;20034;-66
2023/03/19 07:57:39;;;;;;;8.32;5.93;;;;;;;10.39;100.00;101277.03;5113492;28;20024;-69
2023/03/19 08:00:05;;;;;;;7.82;5.50;;;;;;;10.16;100.00;101260.97;5123120;28;20034;-68
2023/03/19 08:02:31;;;;;;;8.43;5.65;;;;;;;9.82;100.00;101250.75;5117385;28;20038;-66
2023/03/19 08:04:57;;;;;;;7.40;5.43;;;;;;;10.17;100.00;101278.78;5111952;28;20061;-66
2023/03/19 08:07:23;;;;;;;7.63;5.30;;;;;;;10.08;100.00;101269.13;5113997;28;20367;-65
2023/03/19 08:09:48;;;;;;;6.70;4.70;;;;;;;10.39;100.00;101260.91;5112471;28;20065;-66
2023/03/19 08:12:14;;;;;;;8.10;5.00;;;;;;;10.60;100.00;101262.84;5113752;28;20027;-66
2023/03/19 08:14:39;;;;;;;8.48;4.88;;;;;;;10.54;100.00;101260.91;5113801;28;20036;-65
2023/03/19 08:17:05;;;;;;;5.70;4.50;;;;;;;10.37;100.00;101265.66;5113711;28;20031;-66
2023/03/19 08:19:30;;;;;;;5.53;4.07;;;;;;;10.76;100.00;101268.00;5113386;28;20043;-65
2023/03/19 08:21:56;;;;;;;5.18;3.70;;;;;;;10.74;100.00;101270.06;5113603;28;20027;-66
2023/03/19 08:24:21;;;;;;;4.65;3.50;;;;;;;10.92;100.00;101271.50;5112063;28;20031;-65
2023/03/19 08:26:47;;;;;;;4.30;3.60;;;;;;;10.57;100.00;101276.69;5112027;28;20024;-65
2023/03/19 08:29:13;;;;;;;5.15;3.38;;;;;;;10.11;100.00;101274.16;5112101;28;20151;-66
2023/03/19 08:31:38;;;;;;;6.43;3.38;;;;;;;10.14;100.00;101271.09;5111993;28;20114;-66
2023/03/19 08:34:04;;;;;;;4.38;3.10;;;;;;;10.48;100.00;101249.03;5112919;28;20023;-65
2023/03/19 08:36:30;;;;;;;5.35;3.20;;;;;;;10.60;100.00;101278.16;5111556;28;20077;-66
2023/03/19 08:38:56;;;;;;;3.83;2.58;;;;;;;10.72;100.00;101269.38;5113215;28;20038;-66
2023/03/19 08:41:22;;;;;;;3.65;2.80;;;;;;;10.95;100.00;101276.50;5111655;28;20055;-66
2023/03/19 08:43:49;;;;;;;4.95;2.83;;;;;;;10.95;100.00;101263.84;5112305;28;20403;-68
2023/03/19 08:46:15;;;;;;;3.42;2.55;;;;;;;10.41;100.00;101274.19;5113071;27;20465;-65
2023/03/19 08:48:41;;;;;;;4.70;3.10;;;;;;;10.53;100.00;101272.69;5113090;27;20098;-66
2023/03/19 08:51:07;;;;;;;3.97;2.95;;;;;;;11.07;100.00;101277.66;5112728;28;20478;-65
2023/03/19 08:53:33;;;;;;;4.38;2.65;;;;;;;11.12;100.00;101274.41;5112608;28;20073;-66
2023/03/19 08:56:01;;;;;;;2.97;2.47;;;;;;;11.00;100.00;101241.78;5113028;28;20024;-65
2023/03/19 08:58:27;;;;;;;2.95;2.20;;;;;;;11.60;100.00;101275.50;5112557;28;20432;-65
2023/03/19 09:00:53;;;;;;;3.47;2.42;;;;;;;11.61;100.00;101274.44;5112348;28;20031;-65
2023/03/19 09:03:19;;;;;;;3.38;2.47;;;;;;;11.19;100.00;101273.47;5112982;28;20031;-65
2023/03/19 09:05:46;;;;;;;3.63;2.30;;;;;;;11.47;100.00;101272.69;5112546;28;20019;-66
2023/03/19 09:08:12;;;;;;;2.15;1.90;;;;;;;11.31;100.00;101281.03;5112193;28;20020;-66
2023/03/19 09:10:38;;;;;;;3.50;2.33;;;;;;;11.71;100.00;101283.03;5111086;28;20050;-65
2023/03/19 09:13:04;;;;;;;3.85;2.33;;;;;;;12.02;100.00;101287.28;5112525;28;20035;-66
2023/03/19 09:15:29;;;;;;;2.97;2.42;;;;;;;12.30;100.00;101289.09;5112248;28;20020;-68
2023/03/19 09:17:55;;;;;;;3.88;2.00;;;;;;;12.10;100.00;101281.72;5112177;28;20028;-65
2023/03/19 09:20:21;;;;;;;3.67;2.22;;;;;;;12.34;100.00;101279.56;5110625;28;20127;-65
2023/03/19 09:22:46;;;;;;;3.30;2.17;;;;;;;12.59;100.00;101277.22;5112204;28;20042;-65
2023/03/19 09:25:12;;;;;;;4.03;2.13;;;;;;;12.67;100.00;101274.31;5111784;28;20027;-66
2023/03/19 09:27:37;;;;;;;3.10;2.08;;;;;;;12.39;100.00;101275.25;5112313;28;20027;-65
2023/03/19 09:30:03;;;;;;;2.78;2.10;;;;;;;12.44;100.00;101266.53;5112218;28;20470;-66
2023/03/19 09:32:29;;;;;;;3.35;2.30;;;;;;;12.54;100.00;101283.19;5110892;28;20034;-66
2023/03/19 09:34:55;;;;;;;2.85;2.05;;;;;;;12.79;100.00;101280.81;5112488;28;20028;-65
2023/03/19 09:37:20;;;;;;;2.33;1.85;;;;;;;12.46;99.40;101277.97;5111760;28;20042;-65
2023/03/19 09:39:46;;;;;;;2.30;1.70;;;;;;;12.27;99.95;101270.59;5111856;28;20122;-66
2023/03/19 09:42:45;;;;;;;2.35;1.80;;;;;;;12.79;100.00;101283.53;5111779;28;20043;-66
2023/03/19 09:45:16;;;;;;;4.32;2.60;;;;;;;12.74;99.99;101290.56;5111903;28;20020;-66
2023/03/19 09:47:44;;;;;;;5.28;2.70;;;;;;;12.68;99.87;101293.03;5110764;28;20448;-66
2023/03/19 09:50:14;;;;;;;4.40;2.67;;;;;;;12.86;99.55;101292.47;5111573;28;20046;-66
2023/03/19 09:52:44;;;;;;;3.67;2.90;;;;;;;13.08;99.14;101295.88;5111410;28;20030;-66
2023/03/19 09:55:23;;;;;;;3.10;2.65;;;;;;;13.17;98.55;101277.59;5112070;28;20015;-66
2023/03/19 09:57:52;;;;;;;3.10;2.63;;;;;;;13.36;98.01;101292.22;5111769;28;20454;-66
2023/03/19 10:00:21;;;;;;;3.58;2.63;;;;;;;13.28;97.78;101292.44;5111569;28;20050;-65
2023/03/19 10:02:52;;;;;;;3.40;2.95;;;;;;;13.12;98.04;101280.91;5111345;28;20431;-66
2023/03/19 10:05:23;;;;;;;3.42;2.53;;;;;;;13.36;97.80;101303.03;5112210;28;20023;-66
2023/03/19 10:07:52;;;;;;;4.00;2.97;;;;;;;13.46;97.56;101305.34;5112149;28;20104;-66
2023/03/19 10:10:23;;;;;;;4.90;3.67;;;;;;;13.50;97.35;101296.59;5111569;28;20053;-65
2023/03/19 10:13:01;;;;;;;5.38;3.97;;;;;;;13.46;97.25;101303.47;5111535;28;20019;-65
2023/03/19 10:15:31;;;;;;;7.00;5.00;;;;;;;13.48;97.18;101300.56;5111455;28;20116;-66
2023/03/19 10:18:06;;;;;;;6.38;4.90;;;;;;;13.47;96.88;101304.28;5115671;27;20051;-66
2023/03/19 10:20:47;;;;;;;5.80;4.53;;;;;;;13.42;96.75;101306.81;5115412;28;20130;-72
2023/03/19 10:23:34;;;;;;;7.07;4.95;;;;;;;13.39;96.31;101308.88;5114242;28;20055;-67
2023/03/19 10:26:03;;;;;;;6.28;4.78;;;;;;;13.31;96.63;101300.97;5114570;28;20054;-66
2023/03/19 10:28:29;;;;;;;7.00;4.88;;;;;;;13.32;96.68;101307.19;5113054;28;20028;-68
2023/03/19 10:31:46;;;;;;;5.70;4.63;;;;;;;13.32;96.22;101304.50;5094381;28;20036;-66
2023/03/19 10:34:34;;;;;;;7.93;4.68;;;;;;;13.34;96.47;101311.38;5034513;28;20351;-67
2023/03/19 10:37:05;;;;;;;5.55;4.25;;;;;;;13.39;96.37;101308.03;5051593;28;20143;-67
2023/03/19 10:39:36;;;;;;;6.18;4.53;;;;;;;13.37;96.20;101310.94;5076855;28;20423;-66
2023/03/19 10:42:33;;;;;;;5.70;4.40;;;;;;;13.44;95.59;101310.94;5093859;28;20108;-66
2023/03/19 10:45:03;;;;;;;5.63;4.10;;;;;;;13.43;95.60;101309.28;5092575;28;20127;-67
2023/03/19 10:47:37;;;;;;;5.90;4.32;;;;;;;13.34;95.36;101307.81;5094170;28;20081;-66
2023/03/19 10:50:03;;;;;;;5.78;4.18;;;;;;;13.38;95.27;101309.91;5094751;28;20027;-66
2023/03/19 10:52:36;;;;;;;6.15;4.50;;;;;;;13.35;95.26;101318.44;5079745;28;20043;-66
2023/03/19 10:55:06;;;;;;;5.47;4.32;;;;;;;13.42;94.89;101310.34;5107099;28;20024;-66
2023/03/19 10:57:32;;;;;;;5.28;3.85;;;;;;;13.47;94.20;101293.47;5105295;28;20314;-67
2023/03/19 11:00:16;;;;;;;5.95;4.53;;;;;;;13.44;93.99;101300.13;5098583;28;20068;-66
2023/03/19 11:02:48;;;;;;;5.40;3.95;;;;;;;13.50;93.96;101291.19;5093126;28;20051;-66
2023/03/19 11:05:13;;;;;;;5.88;4.10;;;;;;;13.72;93.30;101296.41;5090701;28;20067;-66
2023/03/19 11:07:39;;;;;;;4.55;3.72;;;;;;;13.75;93.24;101293.31;5092499;28;20109;-66
2023/03/19 11:10:13;;;;;;;4.50;3.80;;;;;;;13.73;93.83;101293.50;5093882;28;20028;-66
2023/03/19 11:12:39;;;;;;;5.28;4.00;;;;;;;13.79;93.36;101292.66;5093549;28;20103;-66
2023/03/19 11:15:20;;;;;;;4.03;3.53;;;;;;;14.06;92.81;101298.06;5093628;28;20376;-66